RYR51C LIEO-LIRI
Flight info
| Callsign | RYR51C |
|---|---|
| Flight time | 1h 6m |
| Altitude | 30000 |
| Route | ATNET DCT ROXAN DCT VEXUV/N0351F190 M620 SOR |
| Aircraft | B738/M-SDE2E3FGHIRWXY/LB1 |
Departure
| Time | 2026-05-04 13:54 |
|---|---|
| Airport | Olbia Costa Smeralda Airport (LIEO) |
Arrival
| Time | 2026-05-04 15:01 |
|---|---|
| Airport | Salerno Costa d'Amalfi Airport (LIRI) |
| Time | Latitude | Longitude | Altitude | Speed | Heading |
|---|---|---|---|---|---|
| 2026-05-04 13:32 | 40.90167 | 9.51772 | 33 ft | 0 kts | 85° |
| 2026-05-04 13:47 | 40.90167 | 9.51773 | 33 ft | 0 kts | 82° |
| 2026-05-04 13:47 | 40.90171 | 9.51775 | 33 ft | 1 kts | 33° |
| 2026-05-04 13:47 | 40.90180 | 9.51768 | 32 ft | 4 kts | 333° |
| 2026-05-04 13:48 | 40.90216 | 9.51759 | 33 ft | 6 kts | 21° |
| 2026-05-04 13:48 | 40.90220 | 9.51786 | 32 ft | 3 kts | 137° |
| 2026-05-04 13:48 | 40.90201 | 9.51809 | 33 ft | 5 kts | 135° |
| 2026-05-04 13:48 | 40.90180 | 9.51861 | 33 ft | 9 kts | 128° |
| 2026-05-04 13:49 | 40.90116 | 9.51849 | 33 ft | 14 kts | 232° |
| 2026-05-04 13:49 | 40.90049 | 9.51721 | 33 ft | 19 kts | 236° |
| 2026-05-04 13:49 | 40.89974 | 9.51577 | 33 ft | 19 kts | 236° |
| 2026-05-04 13:49 | 40.89901 | 9.51437 | 32 ft | 18 kts | 236° |
| 2026-05-04 13:50 | 40.89831 | 9.51304 | 33 ft | 17 kts | 235° |
| 2026-05-04 13:50 | 40.89762 | 9.51174 | 33 ft | 17 kts | 234° |
| 2026-05-04 13:50 | 40.89692 | 9.51042 | 33 ft | 20 kts | 234° |
| 2026-05-04 13:50 | 40.89600 | 9.50865 | 33 ft | 24 kts | 236° |
| 2026-05-04 13:51 | 40.89509 | 9.50689 | 33 ft | 23 kts | 236° |
| 2026-05-04 13:51 | 40.89423 | 9.50528 | 33 ft | 17 kts | 235° |
| 2026-05-04 13:51 | 40.89401 | 9.50488 | 33 ft | 0 kts | 235° |
| 2026-05-04 13:52 | 40.89393 | 9.50471 | 33 ft | 5 kts | 235° |
| 2026-05-04 13:52 | 40.89340 | 9.50440 | 33 ft | 12 kts | 186° |
| 2026-05-04 13:52 | 40.89278 | 9.50504 | 31 ft | 13 kts | 102° |
| 2026-05-04 13:53 | 40.89260 | 9.50597 | 33 ft | 8 kts | 87° |
| 2026-05-04 13:53 | 40.89290 | 9.50661 | 33 ft | 9 kts | 55° |
| 2026-05-04 13:53 | 40.89405 | 9.50879 | 30 ft | 62 kts | 55° |
| 2026-05-04 13:54 | 40.90358 | 9.52714 | 257 ft | 156 kts | 56° |
| 2026-05-04 13:54 | 40.91002 | 9.53896 | 924 ft | 162 kts | 56° |
| 2026-05-04 13:54 | 40.92480 | 9.56637 | 1742 ft | 212 kts | 58° |
| 2026-05-04 13:55 | 40.93343 | 9.58306 | 2227 ft | 223 kts | 59° |
| 2026-05-04 13:55 | 40.95209 | 9.61852 | 3287 ft | 246 kts | 57° |
| 2026-05-04 13:55 | 40.96205 | 9.63724 | 4026 ft | 251 kts | 56° |
| 2026-05-04 13:56 | 40.97226 | 9.65645 | 4777 ft | 255 kts | 58° |
| 2026-05-04 13:56 | 40.97858 | 9.67812 | 5414 ft | 258 kts | 88° |
| 2026-05-04 13:56 | 40.96603 | 9.72292 | 6408 ft | 276 kts | 125° |
| 2026-05-04 13:57 | 40.95554 | 9.74451 | 7043 ft | 282 kts | 126° |
| 2026-05-04 13:57 | 40.94470 | 9.76661 | 7754 ft | 287 kts | 126° |
| 2026-05-04 13:58 | 40.91145 | 9.83470 | 9887 ft | 300 kts | 126° |
| 2026-05-04 13:58 | 40.88792 | 9.88310 | 10589 ft | 334 kts | 126° |
| 2026-05-04 13:58 | 40.87500 | 9.90969 | 10963 ft | 347 kts | 125° |
| 2026-05-04 13:59 | 40.86197 | 9.93656 | 11578 ft | 352 kts | 125° |
| 2026-05-04 13:59 | 40.84868 | 9.96400 | 12304 ft | 354 kts | 125° |
| 2026-05-04 13:59 | 40.82195 | 10.01908 | 13718 ft | 362 kts | 126° |
| 2026-05-04 14:00 | 40.80815 | 10.04745 | 14384 ft | 366 kts | 126° |
| 2026-05-04 14:00 | 40.78046 | 10.10423 | 15771 ft | 372 kts | 126° |
| 2026-05-04 14:00 | 40.76912 | 10.13488 | 16421 ft | 380 kts | 108° |
| 2026-05-04 14:01 | 40.76616 | 10.16977 | 17095 ft | 387 kts | 88° |
| 2026-05-04 14:01 | 40.76805 | 10.20531 | 17788 ft | 390 kts | 86° |
| 2026-05-04 14:01 | 40.77328 | 10.27746 | 18970 ft | 399 kts | 85° |
| 2026-05-04 14:02 | 40.77593 | 10.31404 | 19547 ft | 402 kts | 85° |
| 2026-05-04 14:02 | 40.77849 | 10.35096 | 20127 ft | 405 kts | 85° |
| 2026-05-04 14:02 | 40.78097 | 10.38820 | 20688 ft | 408 kts | 85° |
| 2026-05-04 14:02 | 40.78339 | 10.42572 | 21247 ft | 412 kts | 85° |
| 2026-05-04 14:03 | 40.78573 | 10.46304 | 21792 ft | 415 kts | 85° |
| 2026-05-04 14:03 | 40.78809 | 10.50111 | 22327 ft | 418 kts | 85° |
| 2026-05-04 14:03 | 40.79045 | 10.53951 | 22858 ft | 421 kts | 85° |
| 2026-05-04 14:03 | 40.79282 | 10.57825 | 23392 ft | 424 kts | 85° |
| 2026-05-04 14:04 | 40.79757 | 10.65658 | 24248 ft | 432 kts | 85° |
| 2026-05-04 14:04 | 40.79996 | 10.69643 | 24572 ft | 438 kts | 85° |
| 2026-05-04 14:04 | 40.80238 | 10.73687 | 24908 ft | 443 kts | 85° |
| 2026-05-04 14:05 | 40.80724 | 10.81875 | 25615 ft | 452 kts | 85° |
| 2026-05-04 14:05 | 40.80965 | 10.85988 | 25963 ft | 456 kts | 84° |
| 2026-05-04 14:05 | 40.81210 | 10.90181 | 26299 ft | 461 kts | 84° |
| 2026-05-04 14:06 | 40.81456 | 10.94425 | 26634 ft | 465 kts | 84° |
| 2026-05-04 14:06 | 40.81702 | 10.98701 | 27069 ft | 466 kts | 84° |
| 2026-05-04 14:06 | 40.81947 | 11.02969 | 27537 ft | 467 kts | 84° |
| 2026-05-04 14:06 | 40.82190 | 11.07260 | 27973 ft | 468 kts | 84° |
| 2026-05-04 14:07 | 40.82435 | 11.11582 | 28363 ft | 471 kts | 84° |
| 2026-05-04 14:07 | 40.82676 | 11.15865 | 28773 ft | 473 kts | 84° |
| 2026-05-04 14:07 | 40.82917 | 11.20204 | 29205 ft | 474 kts | 84° |
| 2026-05-04 14:07 | 40.82951 | 11.24564 | 29665 ft | 475 kts | 92° |
| 2026-05-04 14:08 | 40.82756 | 11.28882 | 30098 ft | 477 kts | 93° |
| 2026-05-04 14:08 | 40.82247 | 11.37691 | 30111 ft | 479 kts | 93° |
| 2026-05-04 14:09 | 40.81498 | 11.50710 | 30120 ft | 475 kts | 92° |
| 2026-05-04 14:10 | 40.80792 | 11.63814 | 30116 ft | 477 kts | 92° |
| 2026-05-04 14:10 | 40.80318 | 11.72559 | 30115 ft | 478 kts | 92° |
| 2026-05-04 14:11 | 40.79838 | 11.81262 | 30113 ft | 477 kts | 92° |
| 2026-05-04 14:11 | 40.79104 | 11.94325 | 30115 ft | 474 kts | 92° |
| 2026-05-04 14:12 | 40.78612 | 12.02936 | 30116 ft | 472 kts | 92° |
| 2026-05-04 14:13 | 40.77859 | 12.15898 | 30122 ft | 471 kts | 92° |
| 2026-05-04 14:13 | 40.77351 | 12.24514 | 30120 ft | 471 kts | 92° |
| 2026-05-04 14:14 | 40.76837 | 12.33117 | 30123 ft | 471 kts | 92° |
| 2026-05-04 14:14 | 40.76054 | 12.46008 | 30127 ft | 471 kts | 92° |
| 2026-05-04 14:15 | 40.74982 | 12.63298 | 29962 ft | 473 kts | 92° |
| 2026-05-04 14:16 | 40.74439 | 12.71880 | 29397 ft | 467 kts | 92° |
| 2026-05-04 14:16 | 40.74170 | 12.76089 | 28851 ft | 466 kts | 92° |
| 2026-05-04 14:17 | 40.73626 | 12.84560 | 27732 ft | 463 kts | 92° |
| 2026-05-04 14:17 | 40.73352 | 12.88789 | 27133 ft | 462 kts | 93° |
| 2026-05-04 14:17 | 40.72801 | 12.97219 | 26123 ft | 455 kts | 93° |
| 2026-05-04 14:18 | 40.72527 | 13.01362 | 25658 ft | 451 kts | 93° |
| 2026-05-04 14:18 | 40.71987 | 13.09493 | 24762 ft | 443 kts | 94° |
| 2026-05-04 14:19 | 40.71449 | 13.17501 | 23888 ft | 435 kts | 94° |
| 2026-05-04 14:19 | 40.71182 | 13.21464 | 23399 ft | 431 kts | 94° |
| 2026-05-04 14:19 | 40.70916 | 13.25386 | 22910 ft | 426 kts | 94° |
| 2026-05-04 14:19 | 40.70650 | 13.29262 | 22470 ft | 421 kts | 94° |
| 2026-05-04 14:20 | 40.70316 | 13.33057 | 22148 ft | 413 kts | 97° |
| 2026-05-04 14:20 | 40.69900 | 13.36772 | 21887 ft | 406 kts | 98° |
| 2026-05-04 14:20 | 40.69464 | 13.40380 | 21630 ft | 399 kts | 98° |
| 2026-05-04 14:21 | 40.68584 | 13.47566 | 20952 ft | 393 kts | 98° |
| 2026-05-04 14:21 | 40.68157 | 13.51114 | 20530 ft | 391 kts | 98° |
| 2026-05-04 14:21 | 40.67736 | 13.54648 | 20105 ft | 389 kts | 98° |
| 2026-05-04 14:21 | 40.67324 | 13.58128 | 19679 ft | 387 kts | 98° |
| 2026-05-04 14:22 | 40.66907 | 13.61652 | 19258 ft | 385 kts | 98° |
| 2026-05-04 14:22 | 40.66497 | 13.65123 | 18824 ft | 384 kts | 98° |
| 2026-05-04 14:22 | 40.66086 | 13.68592 | 18385 ft | 383 kts | 98° |
| 2026-05-04 14:22 | 40.65675 | 13.72054 | 17904 ft | 381 kts | 98° |
| 2026-05-04 14:23 | 40.64858 | 13.78912 | 17018 ft | 376 kts | 99° |
| 2026-05-04 14:23 | 40.64458 | 13.82259 | 16597 ft | 373 kts | 99° |
| 2026-05-04 14:23 | 40.64053 | 13.85635 | 16173 ft | 370 kts | 99° |
| 2026-05-04 14:24 | 40.63651 | 13.88976 | 15763 ft | 368 kts | 99° |
| 2026-05-04 14:24 | 40.63252 | 13.92287 | 15349 ft | 365 kts | 99° |
| 2026-05-04 14:24 | 40.62987 | 13.94473 | 15078 ft | 364 kts | 99° |
| 2026-05-04 14:24 | 40.62589 | 13.97767 | 14665 ft | 362 kts | 99° |
| 2026-05-04 14:25 | 40.62064 | 14.02084 | 14129 ft | 359 kts | 99° |
| 2026-05-04 14:25 | 40.61404 | 14.07501 | 13370 ft | 355 kts | 99° |
| 2026-05-04 14:25 | 40.61018 | 14.10662 | 12965 ft | 352 kts | 99° |
| 2026-05-04 14:26 | 40.60629 | 14.13835 | 12555 ft | 349 kts | 99° |
| 2026-05-04 14:26 | 40.60244 | 14.16973 | 12162 ft | 345 kts | 99° |
| 2026-05-04 14:26 | 40.59862 | 14.20083 | 11766 ft | 342 kts | 99° |
| 2026-05-04 14:26 | 40.59481 | 14.23170 | 11379 ft | 339 kts | 99° |
| 2026-05-04 14:27 | 40.59096 | 14.26190 | 10993 ft | 337 kts | 102° |
| 2026-05-04 14:27 | 40.58183 | 14.28993 | 10732 ft | 329 kts | 126° |
| 2026-05-04 14:27 | 40.56621 | 14.31086 | 10523 ft | 317 kts | 140° |
| 2026-05-04 14:27 | 40.55039 | 14.33008 | 10411 ft | 299 kts | 136° |
| 2026-05-04 14:28 | 40.53602 | 14.34861 | 10256 ft | 284 kts | 136° |
| 2026-05-04 14:28 | 40.52192 | 14.36687 | 9854 ft | 280 kts | 136° |
| 2026-05-04 14:28 | 40.50810 | 14.38461 | 9371 ft | 279 kts | 136° |
| 2026-05-04 14:28 | 40.49412 | 14.40242 | 8922 ft | 277 kts | 136° |
| 2026-05-04 14:29 | 40.46677 | 14.43701 | 8073 ft | 271 kts | 136° |
| 2026-05-04 14:29 | 40.43974 | 14.47104 | 7257 ft | 269 kts | 136° |
| 2026-05-04 14:30 | 40.42632 | 14.48789 | 7023 ft | 266 kts | 136° |
| 2026-05-04 14:30 | 40.41291 | 14.50471 | 6789 ft | 264 kts | 136° |
| 2026-05-04 14:30 | 40.39810 | 14.54679 | 6194 ft | 262 kts | 85° |
| 2026-05-04 14:31 | 40.40328 | 14.56916 | 5759 ft | 261 kts | 60° |
| 2026-05-04 14:31 | 40.42601 | 14.60610 | 4831 ft | 263 kts | 48° |
| 2026-05-04 14:32 | 40.45267 | 14.64078 | 3971 ft | 272 kts | 45° |
| 2026-05-04 14:32 | 40.46500 | 14.65897 | 3707 ft | 262 kts | 51° |
| 2026-05-04 14:32 | 40.47636 | 14.67742 | 3456 ft | 253 kts | 51° |
| 2026-05-04 14:32 | 40.48710 | 14.69490 | 3222 ft | 244 kts | 51° |
| 2026-05-04 14:33 | 40.49770 | 14.71210 | 3055 ft | 237 kts | 51° |
| 2026-05-04 14:33 | 40.50797 | 14.72865 | 2856 ft | 234 kts | 50° |
| 2026-05-04 14:33 | 40.51814 | 14.74497 | 2794 ft | 223 kts | 50° |
| 2026-05-04 14:33 | 40.52779 | 14.76043 | 2792 ft | 219 kts | 50° |
| 2026-05-04 14:34 | 40.53718 | 14.77548 | 2801 ft | 204 kts | 50° |
| 2026-05-04 14:34 | 40.54577 | 14.78923 | 2784 ft | 188 kts | 50° |
| 2026-05-04 14:34 | 40.55374 | 14.80200 | 2771 ft | 174 kts | 50° |
| 2026-05-04 14:34 | 40.56137 | 14.81418 | 2799 ft | 170 kts | 47° |
| 2026-05-04 14:35 | 40.57121 | 14.82175 | 2790 ft | 166 kts | 7° |
| 2026-05-04 14:35 | 40.58290 | 14.82313 | 2803 ft | 171 kts | 4° |
| 2026-05-04 14:35 | 40.59481 | 14.82452 | 2805 ft | 173 kts | 4° |
| 2026-05-04 14:35 | 40.60662 | 14.82594 | 2787 ft | 168 kts | 6° |
| 2026-05-04 14:36 | 40.61694 | 14.83233 | 2792 ft | 167 kts | 46° |
| 2026-05-04 14:36 | 40.62442 | 14.84440 | 2808 ft | 172 kts | 50° |
| 2026-05-04 14:36 | 40.63189 | 14.85653 | 2792 ft | 174 kts | 50° |
| 2026-05-04 14:36 | 40.63938 | 14.86868 | 2792 ft | 168 kts | 50° |
| 2026-05-04 14:37 | 40.64681 | 14.88064 | 2797 ft | 169 kts | 50° |
| 2026-05-04 14:37 | 40.65424 | 14.89267 | 2792 ft | 168 kts | 50° |
| 2026-05-04 14:37 | 40.66163 | 14.90469 | 2795 ft | 171 kts | 50° |
| 2026-05-04 14:37 | 40.66916 | 14.91692 | 2789 ft | 172 kts | 50° |
| 2026-05-04 14:38 | 40.67643 | 14.92878 | 2813 ft | 160 kts | 50° |
| 2026-05-04 14:38 | 40.68337 | 14.94006 | 2806 ft | 157 kts | 50° |
| 2026-05-04 14:38 | 40.68821 | 14.95250 | 2763 ft | 153 kts | 85° |
| 2026-05-04 14:38 | 40.68486 | 14.96557 | 2799 ft | 157 kts | 132° |
| 2026-05-04 14:39 | 40.67564 | 14.97282 | 2604 ft | 154 kts | 168° |
| 2026-05-04 14:39 | 40.66524 | 14.97147 | 2410 ft | 150 kts | 199° |
| 2026-05-04 14:39 | 40.65556 | 14.96710 | 2199 ft | 145 kts | 206° |
| 2026-05-04 14:40 | 40.64215 | 14.94767 | 1941 ft | 153 kts | 235° |
| 2026-05-04 14:40 | 40.63591 | 14.93604 | 2632 ft | 164 kts | 236° |
| 2026-05-04 14:40 | 40.62866 | 14.92313 | 3318 ft | 180 kts | 231° |
| 2026-05-04 14:40 | 40.62005 | 14.90965 | 3778 ft | 205 kts | 230° |
| 2026-05-04 14:41 | 40.61048 | 14.89477 | 3966 ft | 218 kts | 230° |
| 2026-05-04 14:41 | 40.60055 | 14.87939 | 3988 ft | 223 kts | 230° |
| 2026-05-04 14:41 | 40.58047 | 14.84810 | 3983 ft | 222 kts | 230° |
| 2026-05-04 14:42 | 40.56082 | 14.81726 | 4015 ft | 218 kts | 230° |
| 2026-05-04 14:42 | 40.55105 | 14.80190 | 4305 ft | 224 kts | 230° |
| 2026-05-04 14:42 | 40.54083 | 14.78582 | 4574 ft | 233 kts | 230° |
| 2026-05-04 14:43 | 40.53035 | 14.76931 | 4836 ft | 236 kts | 230° |
| 2026-05-04 14:43 | 40.51984 | 14.75277 | 5078 ft | 236 kts | 230° |
| 2026-05-04 14:43 | 40.50946 | 14.73641 | 5321 ft | 236 kts | 230° |
| 2026-05-04 14:43 | 40.49894 | 14.71985 | 5569 ft | 236 kts | 230° |
| 2026-05-04 14:44 | 40.48840 | 14.70325 | 5819 ft | 237 kts | 229° |
| 2026-05-04 14:44 | 40.47776 | 14.68652 | 5988 ft | 241 kts | 230° |
| 2026-05-04 14:44 | 40.46701 | 14.66959 | 5978 ft | 241 kts | 229° |
| 2026-05-04 14:44 | 40.45626 | 14.65269 | 5979 ft | 239 kts | 229° |
| 2026-05-04 14:45 | 40.44556 | 14.63589 | 5992 ft | 239 kts | 230° |
| 2026-05-04 14:45 | 40.43479 | 14.61900 | 5901 ft | 243 kts | 229° |
| 2026-05-04 14:45 | 40.42473 | 14.60115 | 5749 ft | 245 kts | 246° |
| 2026-05-04 14:45 | 40.42262 | 14.57933 | 5640 ft | 242 kts | 274° |
| 2026-05-04 14:46 | 40.42372 | 14.55741 | 5508 ft | 238 kts | 270° |
| 2026-05-04 14:46 | 40.42383 | 14.53617 | 5386 ft | 235 kts | 268° |
| 2026-05-04 14:46 | 40.42343 | 14.51488 | 5253 ft | 232 kts | 267° |
| 2026-05-04 14:46 | 40.42282 | 14.49352 | 5126 ft | 231 kts | 266° |
| 2026-05-04 14:47 | 40.42127 | 14.47254 | 5011 ft | 231 kts | 250° |
| 2026-05-04 14:47 | 40.41297 | 14.45528 | 4994 ft | 228 kts | 220° |
| 2026-05-04 14:47 | 40.39917 | 14.44536 | 4988 ft | 229 kts | 193° |
| 2026-05-04 14:47 | 40.38331 | 14.44500 | 4978 ft | 232 kts | 166° |
| 2026-05-04 14:48 | 40.36915 | 14.45476 | 4964 ft | 232 kts | 136° |
| 2026-05-04 14:48 | 40.36049 | 14.47252 | 4868 ft | 235 kts | 107° |
| 2026-05-04 14:48 | 40.35976 | 14.49389 | 4765 ft | 238 kts | 78° |
| 2026-05-04 14:48 | 40.36669 | 14.51348 | 4661 ft | 238 kts | 54° |
| 2026-05-04 14:49 | 40.37706 | 14.53026 | 4576 ft | 236 kts | 50° |
| 2026-05-04 14:49 | 40.38785 | 14.54653 | 4473 ft | 236 kts | 50° |
| 2026-05-04 14:49 | 40.39860 | 14.56285 | 4374 ft | 235 kts | 50° |
| 2026-05-04 14:49 | 40.40909 | 14.57899 | 4270 ft | 235 kts | 50° |
| 2026-05-04 14:50 | 40.41965 | 14.59536 | 4172 ft | 234 kts | 50° |
| 2026-05-04 14:50 | 40.43048 | 14.61148 | 4051 ft | 236 kts | 41° |
| 2026-05-04 14:50 | 40.44503 | 14.62027 | 4000 ft | 231 kts | 6° |
| 2026-05-04 14:50 | 40.46067 | 14.61725 | 3985 ft | 228 kts | 333° |
| 2026-05-04 14:51 | 40.47265 | 14.60394 | 3996 ft | 228 kts | 302° |
| 2026-05-04 14:51 | 40.47770 | 14.58434 | 3993 ft | 231 kts | 270° |
| 2026-05-04 14:51 | 40.47421 | 14.56405 | 3987 ft | 229 kts | 241° |
| 2026-05-04 14:51 | 40.46499 | 14.54706 | 3991 ft | 229 kts | 230° |
| 2026-05-04 14:52 | 40.45463 | 14.53120 | 3982 ft | 229 kts | 229° |
| 2026-05-04 14:52 | 40.44420 | 14.51537 | 3976 ft | 229 kts | 229° |
| 2026-05-04 14:52 | 40.43382 | 14.49947 | 3974 ft | 229 kts | 229° |
| 2026-05-04 14:52 | 40.42278 | 14.48446 | 3962 ft | 229 kts | 213° |
| 2026-05-04 14:53 | 40.40795 | 14.47794 | 3978 ft | 226 kts | 181° |
| 2026-05-04 14:53 | 40.39279 | 14.48255 | 3982 ft | 226 kts | 150° |
| 2026-05-04 14:53 | 40.38160 | 14.49677 | 3978 ft | 227 kts | 119° |
| 2026-05-04 14:53 | 40.37767 | 14.51669 | 3978 ft | 229 kts | 88° |
| 2026-05-04 14:54 | 40.38225 | 14.53655 | 3988 ft | 231 kts | 59° |
| 2026-05-04 14:54 | 40.39195 | 14.55348 | 3985 ft | 233 kts | 50° |
| 2026-05-04 14:54 | 40.40259 | 14.56967 | 3989 ft | 235 kts | 50° |
| 2026-05-04 14:54 | 40.41329 | 14.58594 | 3983 ft | 237 kts | 50° |
| 2026-05-04 14:55 | 40.42409 | 14.60238 | 3984 ft | 239 kts | 50° |
| 2026-05-04 14:55 | 40.43569 | 14.61871 | 4001 ft | 255 kts | 45° |
| 2026-05-04 14:55 | 40.44847 | 14.63522 | 4001 ft | 260 kts | 44° |
| 2026-05-04 14:55 | 40.46095 | 14.65271 | 3787 ft | 265 kts | 50° |
| 2026-05-04 14:56 | 40.47249 | 14.67123 | 3538 ft | 258 kts | 51° |
| 2026-05-04 14:56 | 40.48339 | 14.68896 | 3412 ft | 239 kts | 51° |
| 2026-05-04 14:56 | 40.49343 | 14.70521 | 3281 ft | 219 kts | 51° |
| 2026-05-04 14:56 | 40.50268 | 14.72016 | 3084 ft | 205 kts | 50° |
| 2026-05-04 14:57 | 40.51160 | 14.73449 | 2778 ft | 198 kts | 50° |
| 2026-05-04 14:57 | 40.52013 | 14.74816 | 2570 ft | 190 kts | 50° |
| 2026-05-04 14:57 | 40.52826 | 14.76118 | 2408 ft | 182 kts | 50° |
| 2026-05-04 14:57 | 40.53624 | 14.77395 | 2152 ft | 179 kts | 50° |
| 2026-05-04 14:58 | 40.54402 | 14.78642 | 1987 ft | 172 kts | 50° |
| 2026-05-04 14:58 | 40.55152 | 14.79843 | 1919 ft | 168 kts | 50° |
| 2026-05-04 14:58 | 40.55887 | 14.81020 | 1825 ft | 171 kts | 50° |
| 2026-05-04 14:58 | 40.56403 | 14.81847 | 1610 ft | 172 kts | 50° |
| 2026-05-04 14:59 | 40.57385 | 14.83424 | 1303 ft | 166 kts | 50° |
| 2026-05-04 14:59 | 40.58102 | 14.84574 | 1121 ft | 156 kts | 50° |
| 2026-05-04 14:59 | 40.59403 | 14.86737 | 702 ft | 147 kts | 53° |
| 2026-05-04 15:00 | 40.60011 | 14.87868 | 524 ft | 154 kts | 54° |
| 2026-05-04 15:00 | 40.60649 | 14.88988 | 296 ft | 152 kts | 52° |
| 2026-05-04 15:00 | 40.61295 | 14.90077 | 95 ft | 150 kts | 51° |
| 2026-05-04 15:01 | 40.62155 | 14.91522 | 87 ft | 40 kts | 52° |
| 2026-05-04 15:01 | 40.62273 | 14.91722 | 84 ft | 16 kts | 55° |
| 2026-05-04 15:01 | 40.62265 | 14.91833 | 83 ft | 13 kts | 141° |
| 2026-05-04 15:01 | 40.62230 | 14.91868 | 86 ft | 2 kts | 143° |
| 2026-05-04 15:02 | 40.62217 | 14.91880 | 83 ft | 2 kts | 143° |
| 2026-05-04 15:02 | 40.62205 | 14.91892 | 85 ft | 2 kts | 143° |
| 2026-05-04 15:02 | 40.62191 | 14.91906 | 84 ft | 4 kts | 143° |
| 2026-05-04 15:02 | 40.62162 | 14.91906 | 85 ft | 5 kts | 216° |
| 2026-05-04 15:03 | 40.62133 | 14.91860 | 86 ft | 8 kts | 232° |
| 2026-05-04 15:03 | 40.62095 | 14.91815 | 88 ft | 8 kts | 184° |
| 2026-05-04 15:03 | 40.62053 | 14.91855 | 83 ft | 8 kts | 139° |
| 2026-05-04 15:03 | 40.62025 | 14.91894 | 83 ft | 5 kts | 139° |
| 2026-05-04 15:04 | 40.62005 | 14.91914 | 85 ft | 1 kts | 142° |
| 2026-05-04 15:04 | 40.62003 | 14.91916 | 85 ft | 0 kts | 142° |